sensor_id;sensor_type;location;lat;lon;timestamp;temperature;humidity
1329;DHT22;658;48.820;9.354;2022-11-06T00:00:41;17.80;56.30
1329;DHT22;658;48.820;9.354;2022-11-06T00:04:41;17.80;56.40
1329;DHT22;658;48.820;9.354;2022-11-06T00:08:42;17.80;56.30
1329;DHT22;658;48.820;9.354;2022-11-06T00:12:42;17.80;56.30
1329;DHT22;658;48.820;9.354;2022-11-06T00:16:44;17.80;56.30
1329;DHT22;658;48.820;9.354;2022-11-06T00:20:45;17.70;56.20
1329;DHT22;658;48.820;9.354;2022-11-06T00:24:45;17.80;56.40
1329;DHT22;658;48.820;9.354;2022-11-06T00:28:46;17.70;56.20
1329;DHT22;658;48.820;9.354;2022-11-06T00:32:46;17.80;56.30
1329;DHT22;658;48.820;9.354;2022-11-06T00:36:47;17.70;56.20
1329;DHT22;658;48.820;9.354;2022-11-06T00:40:48;17.70;56.30
1329;DHT22;658;48.820;9.354;2022-11-06T00:44:48;17.70;56.20
1329;DHT22;658;48.820;9.354;2022-11-06T00:48:49;17.70;56.30
1329;DHT22;658;48.820;9.354;2022-11-06T00:52:49;17.70;56.30
1329;DHT22;658;48.820;9.354;2022-11-06T00:56:50;17.70;56.30
1329;DHT22;658;48.820;9.354;2022-11-06T01:00:50;17.70;56.20
1329;DHT22;658;48.820;9.354;2022-11-06T01:04:51;17.70;56.30
1329;DHT22;658;48.820;9.354;2022-11-06T01:08:51;17.70;56.30
1329;DHT22;658;48.820;9.354;2022-11-06T01:12:52;17.70;56.90
1329;DHT22;658;48.820;9.354;2022-11-06T01:16:52;17.70;56.30
1329;DHT22;658;48.820;9.354;2022-11-06T01:20:56;17.70;56.30
1329;DHT22;658;48.820;9.354;2022-11-06T01:24:56;17.70;56.30
1329;DHT22;658;48.820;9.354;2022-11-06T01:28:57;17.70;56.30
1329;DHT22;658;48.820;9.354;2022-11-06T01:32:58;17.70;56.30
1329;DHT22;658;48.820;9.354;2022-11-06T01:36:58;17.60;56.30
1329;DHT22;658;48.820;9.354;2022-11-06T01:40:59;17.70;56.40
1329;DHT22;658;48.820;9.354;2022-11-06T01:45:19;17.60;56.30
1329;DHT22;658;48.820;9.354;2022-11-06T01:49:21;17.70;56.40
1329;DHT22;658;48.820;9.354;2022-11-06T01:53:21;17.60;56.30
1329;DHT22;658;48.820;9.354;2022-11-06T01:57:23;17.60;56.30
1329;DHT22;658;48.820;9.354;2022-11-06T02:01:23;17.60;56.40
1329;DHT22;658;48.820;9.354;2022-11-06T02:05:24;17.60;56.30
1329;DHT22;658;48.820;9.354;2022-11-06T02:09:25;17.60;56.30
1329;DHT22;658;48.820;9.354;2022-11-06T02:25:45;17.60;56.30
1329;DHT22;658;48.820;9.354;2022-11-06T02:29:50;17.60;56.30
1329;DHT22;658;48.820;9.354;2022-11-06T02:33:53;17.60;56.40
1329;DHT22;658;48.820;9.354;2022-11-06T02:37:56;17.60;56.40
1329;DHT22;658;48.820;9.354;2022-11-06T02:41:58;17.60;56.40
1329;DHT22;658;48.820;9.354;2022-11-06T02:46:04;17.60;56.30
1329;DHT22;658;48.820;9.354;2022-11-06T02:50:06;17.50;56.30
1329;DHT22;658;48.820;9.354;2022-11-06T02:54:08;17.60;56.30
1329;DHT22;658;48.820;9.354;2022-11-06T02:58:11;17.50;56.20
1329;DHT22;658;48.820;9.354;2022-11-06T03:02:23;17.50;56.30
1329;DHT22;658;48.820;9.354;2022-11-06T03:06:27;17.50;56.30
1329;DHT22;658;48.820;9.354;2022-11-06T03:10:32;17.50;56.30
1329;DHT22;658;48.820;9.354;2022-11-06T03:22:47;17.50;56.30
1329;DHT22;658;48.820;9.354;2022-11-06T03:26:49;17.50;56.20
1329;DHT22;658;48.820;9.354;2022-11-06T03:30:54;17.50;56.30
1329;DHT22;658;48.820;9.354;2022-11-06T03:39:03;17.50;56.30
1329;DHT22;658;48.820;9.354;2022-11-06T03:43:05;17.50;56.30
1329;DHT22;658;48.820;9.354;2022-11-06T03:47:20;17.50;56.30
1329;DHT22;658;48.820;9.354;2022-11-06T03:51:32;17.50;56.30
1329;DHT22;658;48.820;9.354;2022-11-06T03:55:37;17.50;56.30
1329;DHT22;658;48.820;9.354;2022-11-06T03:59:40;17.50;56.30
1329;DHT22;658;48.820;9.354;2022-11-06T04:03:44;17.50;56.30
1329;DHT22;658;48.820;9.354;2022-11-06T04:07:47;17.50;56.30
1329;DHT22;658;48.820;9.354;2022-11-06T04:12:07;17.50;56.30
1329;DHT22;658;48.820;9.354;2022-11-06T04:16:31;17.50;56.30
1329;DHT22;658;48.820;9.354;2022-11-06T04:20:34;17.50;56.30
1329;DHT22;658;48.820;9.354;2022-11-06T04:38:50;17.40;56.20
1329;DHT22;658;48.820;9.354;2022-11-06T04:42:23;17.40;56.20
1329;DHT22;658;48.820;9.354;2022-11-06T04:46:26;17.40;56.20
1329;DHT22;658;48.820;9.354;2022-11-06T04:50:29;17.40;56.20
1329;DHT22;658;48.820;9.354;2022-11-06T04:54:31;17.40;56.20
1329;DHT22;658;48.820;9.354;2022-11-06T04:58:32;17.40;56.20
1329;DHT22;658;48.820;9.354;2022-11-06T05:02:32;17.40;56.30
1329;DHT22;658;48.820;9.354;2022-11-06T05:06:33;17.40;56.20
1329;DHT22;658;48.820;9.354;2022-11-06T05:10:33;17.40;56.20
1329;DHT22;658;48.820;9.354;2022-11-06T05:14:34;17.40;56.20
1329;DHT22;658;48.820;9.354;2022-11-06T05:18:35;17.40;56.30
1329;DHT22;658;48.820;9.354;2022-11-06T05:22:39;17.40;56.20
1329;DHT22;658;48.820;9.354;2022-11-06T05:26:58;17.40;56.20
1329;DHT22;658;48.820;9.354;2022-11-06T05:30:58;17.40;56.20
1329;DHT22;658;48.820;9.354;2022-11-06T05:34:59;17.30;56.20
1329;DHT22;658;48.820;9.354;2022-11-06T05:38:59;17.30;56.20
1329;DHT22;658;48.820;9.354;2022-11-06T05:43:00;17.30;56.20
1329;DHT22;658;48.820;9.354;2022-11-06T05:47:00;17.30;56.20
1329;DHT22;658;48.820;9.354;2022-11-06T05:51:01;17.40;56.30
1329;DHT22;658;48.820;9.354;2022-11-06T05:55:02;17.30;56.20
1329;DHT22;658;48.820;9.354;2022-11-06T05:59:03;17.30;56.20
1329;DHT22;658;48.820;9.354;2022-11-06T06:03:03;17.30;56.20
1329;DHT22;658;48.820;9.354;2022-11-06T06:07:04;17.30;56.10
1329;DHT22;658;48.820;9.354;2022-11-06T06:11:05;17.30;56.20
1329;DHT22;658;48.820;9.354;2022-11-06T06:15:06;17.30;56.20
1329;DHT22;658;48.820;9.354;2022-11-06T06:19:07;17.30;56.20
1329;DHT22;658;48.820;9.354;2022-11-06T06:23:08;17.30;56.20
1329;DHT22;658;48.820;9.354;2022-11-06T06:27:09;17.30;56.10
1329;DHT22;658;48.820;9.354;2022-11-06T06:31:09;17.30;56.10
1329;DHT22;658;48.820;9.354;2022-11-06T06:35:10;17.30;56.10
1329;DHT22;658;48.820;9.354;2022-11-06T06:39:11;17.30;56.10
1329;DHT22;658;48.820;9.354;2022-11-06T06:43:11;17.30;56.10
1329;DHT22;658;48.820;9.354;2022-11-06T06:47:12;17.30;56.10
1329;DHT22;658;48.820;9.354;2022-11-06T06:51:16;17.30;56.00
1329;DHT22;658;48.820;9.354;2022-11-06T06:55:16;17.30;56.00
1329;DHT22;658;48.820;9.354;2022-11-06T06:59:17;17.30;55.90
1329;DHT22;658;48.820;9.354;2022-11-06T07:03:17;17.30;55.90
1329;DHT22;658;48.820;9.354;2022-11-06T07:07:17;17.30;56.10
1329;DHT22;658;48.820;9.354;2022-11-06T07:11:18;17.30;55.90
1329;DHT22;658;48.820;9.354;2022-11-06T07:15:18;17.30;55.90
1329;DHT22;658;48.820;9.354;2022-11-06T07:19:19;17.30;55.80
1329;DHT22;658;48.820;9.354;2022-11-06T07:23:19;17.40;55.80
1329;DHT22;658;48.820;9.354;2022-11-06T07:27:20;17.40;55.70
1329;DHT22;658;48.820;9.354;2022-11-06T07:31:20;17.40;55.60
1329;DHT22;658;48.820;9.354;2022-11-06T07:35:21;17.50;55.60
1329;DHT22;658;48.820;9.354;2022-11-06T07:39:21;17.50;55.50
1329;DHT22;658;48.820;9.354;2022-11-06T07:43:22;17.50;55.40
1329;DHT22;658;48.820;9.354;2022-11-06T07:47:24;17.50;55.40
1329;DHT22;658;48.820;9.354;2022-11-06T07:51:24;17.60;55.30
1329;DHT22;658;48.820;9.354;2022-11-06T07:55:25;17.70;55.10
1329;DHT22;658;48.820;9.354;2022-11-06T07:59:28;17.70;55.00
1329;DHT22;658;48.820;9.354;2022-11-06T08:03:29;17.70;55.00
1329;DHT22;658;48.820;9.354;2022-11-06T08:07:29;17.80;54.90
1329;DHT22;658;48.820;9.354;2022-11-06T08:11:30;17.80;54.70
1329;DHT22;658;48.820;9.354;2022-11-06T08:15:30;17.90;54.70
1329;DHT22;658;48.820;9.354;2022-11-06T08:19:31;18.00;54.50
1329;DHT22;658;48.820;9.354;2022-11-06T08:23:32;18.10;54.30
1329;DHT22;658;48.820;9.354;2022-11-06T08:27:33;18.10;54.30
1329;DHT22;658;48.820;9.354;2022-11-06T08:31:33;18.10;54.20
1329;DHT22;658;48.820;9.354;2022-11-06T08:35:33;18.20;54.00
1329;DHT22;658;48.820;9.354;2022-11-06T08:39:34;18.30;53.80
1329;DHT22;658;48.820;9.354;2022-11-06T08:43:34;18.40;53.70
1329;DHT22;658;48.820;9.354;2022-11-06T08:47:35;18.40;53.40
1329;DHT22;658;48.820;9.354;2022-11-06T08:51:36;18.50;53.30
1329;DHT22;658;48.820;9.354;2022-11-06T08:55:37;18.60;53.00
1329;DHT22;658;48.820;9.354;2022-11-06T08:59:37;18.70;52.90
1329;DHT22;658;48.820;9.354;2022-11-06T09:03:38;18.80;52.70
1329;DHT22;658;48.820;9.354;2022-11-06T09:07:38;18.90;52.50
1329;DHT22;658;48.820;9.354;2022-11-06T09:11:39;19.00;52.40
1329;DHT22;658;48.820;9.354;2022-11-06T09:15:40;19.00;52.20
1329;DHT22;658;48.820;9.354;2022-11-06T09:19:40;19.10;52.10
1329;DHT22;658;48.820;9.354;2022-11-06T09:23:41;19.10;51.90
1329;DHT22;658;48.820;9.354;2022-11-06T09:27:42;19.20;52.40
1329;DHT22;658;48.820;9.354;2022-11-06T09:31:43;19.20;51.70
1329;DHT22;658;48.820;9.354;2022-11-06T09:35:43;19.30;52.30
1329;DHT22;658;48.820;9.354;2022-11-06T09:39:44;19.40;51.50
1329;DHT22;658;48.820;9.354;2022-11-06T09:48:11;19.50;51.30
1329;DHT22;658;48.820;9.354;2022-11-06T09:52:47;19.60;51.30
1329;DHT22;658;48.820;9.354;2022-11-06T09:56:40;19.70;51.10
1329;DHT22;658;48.820;9.354;2022-11-06T10:00:41;19.80;51.10
1329;DHT22;658;48.820;9.354;2022-11-06T10:09:02;19.90;50.80
1329;DHT22;658;48.820;9.354;2022-11-06T10:13:10;19.90;50.70
1329;DHT22;658;48.820;9.354;2022-11-06T10:17:19;20.00;50.60
1329;DHT22;658;48.820;9.354;2022-11-06T10:21:23;20.10;50.50
1329;DHT22;658;48.820;9.354;2022-11-06T10:25:52;20.10;50.50
1329;DHT22;658;48.820;9.354;2022-11-06T10:30:07;20.20;50.40
1329;DHT22;658;48.820;9.354;2022-11-06T10:34:10;20.20;50.20
1329;DHT22;658;48.820;9.354;2022-11-06T10:38:16;20.30;50.00
1329;DHT22;658;48.820;9.354;2022-11-06T10:42:18;20.40;49.90
1329;DHT22;658;48.820;9.354;2022-11-06T10:46:32;20.50;49.70
1329;DHT22;658;48.820;9.354;2022-11-06T10:51:14;20.60;49.60
1329;DHT22;658;48.820;9.354;2022-11-06T10:55:04;20.70;49.40
1329;DHT22;658;48.820;9.354;2022-11-06T10:59:09;20.70;49.20
1329;DHT22;658;48.820;9.354;2022-11-06T11:03:23;20.80;49.00
1329;DHT22;658;48.820;9.354;2022-11-06T11:07:30;21.10;48.70
1329;DHT22;658;48.820;9.354;2022-11-06T11:11:30;21.10;48.60
1329;DHT22;658;48.820;9.354;2022-11-06T11:15:37;21.10;48.30
1329;DHT22;658;48.820;9.354;2022-11-06T11:19:39;21.20;48.30
1329;DHT22;658;48.820;9.354;2022-11-06T11:24:03;21.50;47.90
1329;DHT22;658;48.820;9.354;2022-11-06T11:28:03;21.70;47.30
1329;DHT22;658;48.820;9.354;2022-11-06T11:32:04;21.90;46.70
1329;DHT22;658;48.820;9.354;2022-11-06T11:36:06;22.20;46.40
1329;DHT22;658;48.820;9.354;2022-11-06T11:44:27;22.90;45.20
1329;DHT22;658;48.820;9.354;2022-11-06T11:48:39;23.20;44.00
1329;DHT22;658;48.820;9.354;2022-11-06T11:52:39;23.40;43.40
1329;DHT22;658;48.820;9.354;2022-11-06T11:56:50;23.50;43.30
1329;DHT22;658;48.820;9.354;2022-11-06T12:00:53;23.50;43.30
1329;DHT22;658;48.820;9.354;2022-11-06T12:05:00;23.70;42.80
1329;DHT22;658;48.820;9.354;2022-11-06T12:09:01;23.70;42.90
1329;DHT22;658;48.820;9.354;2022-11-06T12:13:12;24.00;42.40
1329;DHT22;658;48.820;9.354;2022-11-06T12:17:16;24.10;42.00
1329;DHT22;658;48.820;9.354;2022-11-06T12:21:31;24.10;42.00
1329;DHT22;658;48.820;9.354;2022-11-06T12:25:34;24.10;42.00
1329;DHT22;658;48.820;9.354;2022-11-06T12:29:37;24.10;41.80
1329;DHT22;658;48.820;9.354;2022-11-06T12:33:39;24.10;42.20
1329;DHT22;658;48.820;9.354;2022-11-06T12:37:43;24.00;42.70
1329;DHT22;658;48.820;9.354;2022-11-06T12:41:47;24.20;42.10
1329;DHT22;658;48.820;9.354;2022-11-06T12:54:07;22.90;44.50
1329;DHT22;658;48.820;9.354;2022-11-06T12:58:14;22.60;45.30
1329;DHT22;658;48.820;9.354;2022-11-06T13:23:34;21.70;47.20
1329;DHT22;658;48.820;9.354;2022-11-06T13:27:38;21.80;46.90
1329;DHT22;658;48.820;9.354;2022-11-06T13:31:41;21.80;46.60
1329;DHT22;658;48.820;9.354;2022-11-06T13:35:43;22.00;46.50
1329;DHT22;658;48.820;9.354;2022-11-06T13:39:49;21.80;46.80
1329;DHT22;658;48.820;9.354;2022-11-06T13:43:57;21.70;47.00
1329;DHT22;658;48.820;9.354;2022-11-06T13:51:59;21.50;47.30
1329;DHT22;658;48.820;9.354;2022-11-06T14:08:43;21.10;47.90
1329;DHT22;658;48.820;9.354;2022-11-06T14:12:45;21.00;48.20
1329;DHT22;658;48.820;9.354;2022-11-06T14:37:44;20.50;49.30
1329;DHT22;658;48.820;9.354;2022-11-06T14:41:49;20.50;49.30
1329;DHT22;658;48.820;9.354;2022-11-06T14:45:52;20.30;49.30
1329;DHT22;658;48.820;9.354;2022-11-06T14:49:58;20.30;49.40
1329;DHT22;658;48.820;9.354;2022-11-06T14:54:15;20.20;49.50
1329;DHT22;658;48.820;9.354;2022-11-06T14:58:19;20.10;49.50
1329;DHT22;658;48.820;9.354;2022-11-06T15:02:22;20.10;49.60
1329;DHT22;658;48.820;9.354;2022-11-06T15:18:43;19.90;49.80
1329;DHT22;658;48.820;9.354;2022-11-06T15:22:49;19.80;50.00
1329;DHT22;658;48.820;9.354;2022-11-06T15:26:53;19.80;50.20
1329;DHT22;658;48.820;9.354;2022-11-06T15:35:07;19.70;50.20
1329;DHT22;658;48.820;9.354;2022-11-06T15:43:42;19.60;50.50
1329;DHT22;658;48.820;9.354;2022-11-06T15:47:59;19.50;50.50
1329;DHT22;658;48.820;9.354;2022-11-06T15:52:03;19.50;50.70
1329;DHT22;658;48.820;9.354;2022-11-06T15:56:06;19.40;50.70
1329;DHT22;658;48.820;9.354;2022-11-06T16:00:18;19.30;50.90
1329;DHT22;658;48.820;9.354;2022-11-06T16:04:22;19.20;51.00
1329;DHT22;658;48.820;9.354;2022-11-06T16:08:23;19.20;51.10
1329;DHT22;658;48.820;9.354;2022-11-06T16:12:24;19.10;51.30
1329;DHT22;658;48.820;9.354;2022-11-06T16:16:32;19.00;51.30
1329;DHT22;658;48.820;9.354;2022-11-06T16:20:33;19.00;51.40
1329;DHT22;658;48.820;9.354;2022-11-06T16:24:39;19.00;51.30
1329;DHT22;658;48.820;9.354;2022-11-06T16:28:43;19.00;51.40
1329;DHT22;658;48.820;9.354;2022-11-06T16:32:44;19.00;51.40
1329;DHT22;658;48.820;9.354;2022-11-06T16:36:56;19.00;51.40
1329;DHT22;658;48.820;9.354;2022-11-06T16:40:57;18.90;51.50
1329;DHT22;658;48.820;9.354;2022-11-06T16:53:30;18.90;51.70
1329;DHT22;658;48.820;9.354;2022-11-06T16:57:35;18.90;51.70
1329;DHT22;658;48.820;9.354;2022-11-06T17:01:42;18.90;51.80
1329;DHT22;658;48.820;9.354;2022-11-06T17:05:49;18.80;51.80
1329;DHT22;658;48.820;9.354;2022-11-06T17:09:55;18.80;51.90
1329;DHT22;658;48.820;9.354;2022-11-06T17:13:56;18.80;52.00
1329;DHT22;658;48.820;9.354;2022-11-06T17:17:57;18.80;52.10
1329;DHT22;658;48.820;9.354;2022-11-06T17:21:58;18.70;52.10
1329;DHT22;658;48.820;9.354;2022-11-06T17:26:01;18.70;52.20
1329;DHT22;658;48.820;9.354;2022-11-06T17:30:02;18.80;52.40
1329;DHT22;658;48.820;9.354;2022-11-06T17:34:03;18.70;52.40
1329;DHT22;658;48.820;9.354;2022-11-06T17:38:04;18.70;52.60
1329;DHT22;658;48.820;9.354;2022-11-06T17:42:05;18.60;52.50
1329;DHT22;658;48.820;9.354;2022-11-06T17:46:09;18.60;52.50
1329;DHT22;658;48.820;9.354;2022-11-06T17:50:16;18.60;52.40
1329;DHT22;658;48.820;9.354;2022-11-06T17:54:20;18.70;52.50
1329;DHT22;658;48.820;9.354;2022-11-06T17:58:21;18.60;52.60
1329;DHT22;658;48.820;9.354;2022-11-06T18:02:22;18.60;52.60
1329;DHT22;658;48.820;9.354;2022-11-06T18:06:23;18.50;52.70
1329;DHT22;658;48.820;9.354;2022-11-06T18:10:25;18.50;52.80
1329;DHT22;658;48.820;9.354;2022-11-06T18:14:26;18.50;52.90
1329;DHT22;658;48.820;9.354;2022-11-06T18:18:27;18.50;52.90
1329;DHT22;658;48.820;9.354;2022-11-06T18:22:27;18.50;53.00
1329;DHT22;658;48.820;9.354;2022-11-06T18:26:28;18.50;53.10
1329;DHT22;658;48.820;9.354;2022-11-06T18:30:29;18.50;53.20
1329;DHT22;658;48.820;9.354;2022-11-06T18:34:29;18.50;53.20
1329;DHT22;658;48.820;9.354;2022-11-06T18:38:30;18.50;53.40
1329;DHT22;658;48.820;9.354;2022-11-06T18:42:30;18.50;53.50
1329;DHT22;658;48.820;9.354;2022-11-06T18:46:31;18.50;53.60
1329;DHT22;658;48.820;9.354;2022-11-06T18:50:35;18.50;53.70
1329;DHT22;658;48.820;9.354;2022-11-06T18:54:39;18.60;53.80
1329;DHT22;658;48.820;9.354;2022-11-06T18:58:40;18.60;54.00
1329;DHT22;658;48.820;9.354;2022-11-06T19:02:41;18.60;54.20
1329;DHT22;658;48.820;9.354;2022-11-06T19:06:48;18.60;54.50
1329;DHT22;658;48.820;9.354;2022-11-06T19:10:50;18.60;55.10
1329;DHT22;658;48.820;9.354;2022-11-06T19:15:17;18.60;54.70
1329;DHT22;658;48.820;9.354;2022-11-06T19:19:50;18.70;54.70
1329;DHT22;658;48.820;9.354;2022-11-06T19:23:54;18.70;54.80
1329;DHT22;658;48.820;9.354;2022-11-06T19:28:13;18.70;54.90
1329;DHT22;658;48.820;9.354;2022-11-06T19:32:20;18.70;54.50
1329;DHT22;658;48.820;9.354;2022-11-06T19:36:38;18.80;54.50
1329;DHT22;658;48.820;9.354;2022-11-06T19:40:51;18.80;54.70
1329;DHT22;658;48.820;9.354;2022-11-06T19:44:54;18.90;55.30
1329;DHT22;658;48.820;9.354;2022-11-06T19:48:55;18.90;55.10
1329;DHT22;658;48.820;9.354;2022-11-06T19:52:56;18.90;55.20
1329;DHT22;658;48.820;9.354;2022-11-06T19:56:59;18.90;55.10
1329;DHT22;658;48.820;9.354;2022-11-06T20:01:10;18.90;55.20
1329;DHT22;658;48.820;9.354;2022-11-06T20:05:17;19.10;55.00
1329;DHT22;658;48.820;9.354;2022-11-06T20:13:51;19.30;54.40
1329;DHT22;658;48.820;9.354;2022-11-06T20:17:52;19.40;54.30
1329;DHT22;658;48.820;9.354;2022-11-06T20:21:52;19.50;54.10
1329;DHT22;658;48.820;9.354;2022-11-06T20:25:57;19.60;53.90
1329;DHT22;658;48.820;9.354;2022-11-06T20:29:58;19.70;54.30
1329;DHT22;658;48.820;9.354;2022-11-06T20:34:03;19.80;54.40
1329;DHT22;658;48.820;9.354;2022-11-06T20:38:08;19.90;54.50
1329;DHT22;658;48.820;9.354;2022-11-06T20:42:10;19.90;55.00
1329;DHT22;658;48.820;9.354;2022-11-06T20:46:13;19.90;54.50
1329;DHT22;658;48.820;9.354;2022-11-06T20:50:14;20.00;54.50
1329;DHT22;658;48.820;9.354;2022-11-06T20:54:16;20.00;54.40
1329;DHT22;658;48.820;9.354;2022-11-06T20:58:23;20.10;54.40
1329;DHT22;658;48.820;9.354;2022-11-06T21:02:27;20.20;54.40
1329;DHT22;658;48.820;9.354;2022-11-06T21:06:27;20.20;54.30
1329;DHT22;658;48.820;9.354;2022-11-06T21:10:31;20.20;54.60
1329;DHT22;658;48.820;9.354;2022-11-06T21:14:32;20.20;54.90
1329;DHT22;658;48.820;9.354;2022-11-06T21:23:08;20.40;54.50
1329;DHT22;658;48.820;9.354;2022-11-06T21:27:10;20.40;54.30
1329;DHT22;658;48.820;9.354;2022-11-06T21:31:16;20.50;54.40
1329;DHT22;658;48.820;9.354;2022-11-06T21:35:18;20.50;54.30
1329;DHT22;658;48.820;9.354;2022-11-06T21:39:21;20.50;54.20
1329;DHT22;658;48.820;9.354;2022-11-06T21:43:29;20.50;54.20
1329;DHT22;658;48.820;9.354;2022-11-06T21:47:54;20.40;54.50
1329;DHT22;658;48.820;9.354;2022-11-06T21:51:58;20.30;54.60
1329;DHT22;658;48.820;9.354;2022-11-06T21:56:42;20.20;54.60
1329;DHT22;658;48.820;9.354;2022-11-06T22:00:41;20.10;54.90
1329;DHT22;658;48.820;9.354;2022-11-06T22:04:42;20.00;55.10
1329;DHT22;658;48.820;9.354;2022-11-06T22:08:44;20.00;55.00
1329;DHT22;658;48.820;9.354;2022-11-06T22:12:46;20.00;55.10
1329;DHT22;658;48.820;9.354;2022-11-06T22:16:52;20.00;55.20
1329;DHT22;658;48.820;9.354;2022-11-06T22:21:03;19.90;55.20
1329;DHT22;658;48.820;9.354;2022-11-06T22:25:09;19.90;55.20
1329;DHT22;658;48.820;9.354;2022-11-06T22:29:11;19.90;55.20
1329;DHT22;658;48.820;9.354;2022-11-06T22:33:16;19.90;55.20
1329;DHT22;658;48.820;9.354;2022-11-06T22:37:19;19.90;55.20
1329;DHT22;658;48.820;9.354;2022-11-06T22:41:45;19.90;55.20
1329;DHT22;658;48.820;9.354;2022-11-06T22:45:46;19.90;55.30
1329;DHT22;658;48.820;9.354;2022-11-06T22:49:47;19.90;55.10
1329;DHT22;658;48.820;9.354;2022-11-06T22:53:49;19.90;55.10
1329;DHT22;658;48.820;9.354;2022-11-06T22:57:54;19.90;55.80
1329;DHT22;658;48.820;9.354;2022-11-06T23:01:58;19.90;55.30
1329;DHT22;658;48.820;9.354;2022-11-06T23:06:06;19.90;55.30
1329;DHT22;658;48.820;9.354;2022-11-06T23:10:11;19.90;55.40
1329;DHT22;658;48.820;9.354;2022-11-06T23:14:12;19.90;55.40
1329;DHT22;658;48.820;9.354;2022-11-06T23:18:14;19.90;55.20
1329;DHT22;658;48.820;9.354;2022-11-06T23:22:16;20.00;55.70
1329;DHT22;658;48.820;9.354;2022-11-06T23:26:35;20.00;55.40
1329;DHT22;658;48.820;9.354;2022-11-06T23:30:37;20.00;55.70
1329;DHT22;658;48.820;9.354;2022-11-06T23:34:38;20.00;55.40
1329;DHT22;658;48.820;9.354;2022-11-06T23:38:39;20.00;55.80
1329;DHT22;658;48.820;9.354;2022-11-06T23:42:48;20.00;55.70
1329;DHT22;658;48.820;9.354;2022-11-06T23:46:51;20.00;55.60
1329;DHT22;658;48.820;9.354;2022-11-06T23:50:52;20.00;55.70
1329;DHT22;658;48.820;9.354;2022-11-06T23:54:53;20.00;55.60
1329;DHT22;658;48.820;9.354;2022-11-06T23:58:55;20.10;55.70
